sensor_id;sensor_type;location;lat;lon;timestamp;temperature;humidity
7427;DHT22;3755;59.316;18.092;2023-11-21T00:01:44;0.90;99.90
7427;DHT22;3755;59.316;18.092;2023-11-21T00:04:11;1.00;99.90
7427;DHT22;3755;59.316;18.092;2023-11-21T00:06:38;0.90;99.90
7427;DHT22;3755;59.316;18.092;2023-11-21T00:09:06;0.90;99.90
7427;DHT22;3755;59.316;18.092;2023-11-21T00:11:34;0.90;99.90
7427;DHT22;3755;59.316;18.092;2023-11-21T00:14:03;0.90;99.90
7427;DHT22;3755;59.316;18.092;2023-11-21T00:16:30;1.00;99.90
7427;DHT22;3755;59.316;18.092;2023-11-21T00:18:57;1.00;99.90
7427;DHT22;3755;59.316;18.092;2023-11-21T00:21:24;1.00;99.90
7427;DHT22;3755;59.316;18.092;2023-11-21T00:23:50;1.10;99.90
7427;DHT22;3755;59.316;18.092;2023-11-21T00:26:18;1.00;99.90
7427;DHT22;3755;59.316;18.092;2023-11-21T00:28:45;1.10;99.90
7427;DHT22;3755;59.316;18.092;2023-11-21T00:31:13;1.10;99.90
7427;DHT22;3755;59.316;18.092;2023-11-21T00:33:40;1.10;99.90
7427;DHT22;3755;59.316;18.092;2023-11-21T00:36:08;1.30;99.90
7427;DHT22;3755;59.316;18.092;2023-11-21T00:38:35;1.10;99.90
7427;DHT22;3755;59.316;18.092;2023-11-21T00:41:07;1.10;99.90
7427;DHT22;3755;59.316;18.092;2023-11-21T00:43:33;1.10;99.90
7427;DHT22;3755;59.316;18.092;2023-11-21T00:46:04;1.10;99.90
7427;DHT22;3755;59.316;18.092;2023-11-21T00:48:34;1.10;99.90
7427;DHT22;3755;59.316;18.092;2023-11-21T00:51:01;1.00;99.90
7427;DHT22;3755;59.316;18.092;2023-11-21T00:53:28;1.10;99.90
7427;DHT22;3755;59.316;18.092;2023-11-21T00:55:55;1.20;99.90
7427;DHT22;3755;59.316;18.092;2023-11-21T00:58:23;1.20;99.90
7427;DHT22;3755;59.316;18.092;2023-11-21T01:00:50;1.20;99.90
7427;DHT22;3755;59.316;18.092;2023-11-21T01:03:17;1.20;99.90
7427;DHT22;3755;59.316;18.092;2023-11-21T01:05:46;1.10;99.90
7427;DHT22;3755;59.316;18.092;2023-11-21T01:08:15;1.10;99.90
7427;DHT22;3755;59.316;18.092;2023-11-21T01:10:42;1.10;99.90
7427;DHT22;3755;59.316;18.092;2023-11-21T01:13:09;1.10;99.90
7427;DHT22;3755;59.316;18.092;2023-11-21T01:15:36;1.10;99.90
7427;DHT22;3755;59.316;18.092;2023-11-21T01:18:04;1.10;99.90
7427;DHT22;3755;59.316;18.092;2023-11-21T01:20:31;1.10;99.90
7427;DHT22;3755;59.316;18.092;2023-11-21T01:22:59;1.10;99.90
7427;DHT22;3755;59.316;18.092;2023-11-21T01:25:26;1.10;99.90
7427;DHT22;3755;59.316;18.092;2023-11-21T01:27:53;1.10;99.90
7427;DHT22;3755;59.316;18.092;2023-11-21T01:30:20;1.20;99.90
7427;DHT22;3755;59.316;18.092;2023-11-21T01:32:47;1.20;99.90
7427;DHT22;3755;59.316;18.092;2023-11-21T01:35:14;1.30;99.90
7427;DHT22;3755;59.316;18.092;2023-11-21T01:37:41;1.30;99.90
7427;DHT22;3755;59.316;18.092;2023-11-21T01:40:11;1.30;99.90
7427;DHT22;3755;59.316;18.092;2023-11-21T01:42:39;1.30;99.90
7427;DHT22;3755;59.316;18.092;2023-11-21T01:45:07;1.30;99.90
7427;DHT22;3755;59.316;18.092;2023-11-21T01:47:35;1.30;99.90
7427;DHT22;3755;59.316;18.092;2023-11-21T01:50:04;1.30;99.90
7427;DHT22;3755;59.316;18.092;2023-11-21T01:52:34;1.30;99.90
7427;DHT22;3755;59.316;18.092;2023-11-21T01:55:02;1.30;99.90
7427;DHT22;3755;59.316;18.092;2023-11-21T01:57:31;1.40;99.90
7427;DHT22;3755;59.316;18.092;2023-11-21T01:59:59;1.40;99.90
7427;DHT22;3755;59.316;18.092;2023-11-21T02:02:41;1.40;99.90
7427;DHT22;3755;59.316;18.092;2023-11-21T02:05:09;1.40;99.90
7427;DHT22;3755;59.316;18.092;2023-11-21T02:07:38;1.40;99.90
7427;DHT22;3755;59.316;18.092;2023-11-21T02:10:06;1.40;99.90
7427;DHT22;3755;59.316;18.092;2023-11-21T02:12:35;1.40;99.90
7427;DHT22;3755;59.316;18.092;2023-11-21T02:15:05;1.40;99.90
7427;DHT22;3755;59.316;18.092;2023-11-21T02:17:40;1.40;99.90
7427;DHT22;3755;59.316;18.092;2023-11-21T02:20:08;1.40;99.90
7427;DHT22;3755;59.316;18.092;2023-11-21T02:22:41;1.30;99.90
7427;DHT22;3755;59.316;18.092;2023-11-21T02:25:10;1.30;99.90
7427;DHT22;3755;59.316;18.092;2023-11-21T02:27:37;1.30;99.90
7427;DHT22;3755;59.316;18.092;2023-11-21T02:30:06;1.30;99.90
7427;DHT22;3755;59.316;18.092;2023-11-21T02:32:38;1.30;99.90
7427;DHT22;3755;59.316;18.092;2023-11-21T02:35:06;1.30;99.90
7427;DHT22;3755;59.316;18.092;2023-11-21T02:37:34;1.30;99.90
7427;DHT22;3755;59.316;18.092;2023-11-21T02:40:01;1.30;99.90
7427;DHT22;3755;59.316;18.092;2023-11-21T02:42:33;1.30;99.90
7427;DHT22;3755;59.316;18.092;2023-11-21T02:45:00;1.30;99.90
7427;DHT22;3755;59.316;18.092;2023-11-21T02:47:29;1.30;99.90
7427;DHT22;3755;59.316;18.092;2023-11-21T02:49:55;1.30;99.90
7427;DHT22;3755;59.316;18.092;2023-11-21T02:52:22;1.30;99.90
7427;DHT22;3755;59.316;18.092;2023-11-21T02:54:50;1.30;99.90
7427;DHT22;3755;59.316;18.092;2023-11-21T02:57:19;1.30;99.90
7427;DHT22;3755;59.316;18.092;2023-11-21T02:59:47;1.30;99.90
7427;DHT22;3755;59.316;18.092;2023-11-21T03:02:14;1.30;99.90
7427;DHT22;3755;59.316;18.092;2023-11-21T03:04:41;1.30;99.90
7427;DHT22;3755;59.316;18.092;2023-11-21T03:07:09;1.30;99.90
7427;DHT22;3755;59.316;18.092;2023-11-21T03:09:36;1.30;99.90
7427;DHT22;3755;59.316;18.092;2023-11-21T03:12:04;1.30;99.90
7427;DHT22;3755;59.316;18.092;2023-11-21T03:14:31;1.30;99.90
7427;DHT22;3755;59.316;18.092;2023-11-21T03:17:00;1.30;99.90
7427;DHT22;3755;59.316;18.092;2023-11-21T03:19:27;1.30;99.90
7427;DHT22;3755;59.316;18.092;2023-11-21T03:21:54;1.40;99.90
7427;DHT22;3755;59.316;18.092;2023-11-21T03:24:21;1.40;99.90
7427;DHT22;3755;59.316;18.092;2023-11-21T03:26:48;1.40;99.90
7427;DHT22;3755;59.316;18.092;2023-11-21T03:29:16;1.40;99.90
7427;DHT22;3755;59.316;18.092;2023-11-21T03:31:43;1.40;99.90
7427;DHT22;3755;59.316;18.092;2023-11-21T03:34:15;1.40;99.90
7427;DHT22;3755;59.316;18.092;2023-11-21T03:36:43;1.40;99.90
7427;DHT22;3755;59.316;18.092;2023-11-21T03:39:12;1.30;99.90
7427;DHT22;3755;59.316;18.092;2023-11-21T03:41:39;1.30;99.90
7427;DHT22;3755;59.316;18.092;2023-11-21T03:44:06;1.30;99.90
7427;DHT22;3755;59.316;18.092;2023-11-21T03:46:33;1.40;99.90
7427;DHT22;3755;59.316;18.092;2023-11-21T03:49:00;1.40;99.90
7427;DHT22;3755;59.316;18.092;2023-11-21T03:51:29;1.30;99.90
7427;DHT22;3755;59.316;18.092;2023-11-21T03:53:56;1.40;99.90
7427;DHT22;3755;59.316;18.092;2023-11-21T03:56:23;1.40;99.90
7427;DHT22;3755;59.316;18.092;2023-11-21T03:58:50;1.40;99.90
7427;DHT22;3755;59.316;18.092;2023-11-21T04:01:20;1.40;99.90
7427;DHT22;3755;59.316;18.092;2023-11-21T04:03:48;1.50;99.90
7427;DHT22;3755;59.316;18.092;2023-11-21T04:06:16;1.60;99.90
7427;DHT22;3755;59.316;18.092;2023-11-21T04:08:45;1.50;99.90
7427;DHT22;3755;59.316;18.092;2023-11-21T04:11:12;1.50;99.90
7427;DHT22;3755;59.316;18.092;2023-11-21T04:13:40;1.50;99.90
7427;DHT22;3755;59.316;18.092;2023-11-21T04:16:08;1.50;99.90
7427;DHT22;3755;59.316;18.092;2023-11-21T04:18:36;1.60;99.90
7427;DHT22;3755;59.316;18.092;2023-11-21T04:21:03;1.50;99.90
7427;DHT22;3755;59.316;18.092;2023-11-21T04:23:30;1.60;99.90
7427;DHT22;3755;59.316;18.092;2023-11-21T04:25:59;1.60;99.90
7427;DHT22;3755;59.316;18.092;2023-11-21T04:28:27;1.70;99.90
7427;DHT22;3755;59.316;18.092;2023-11-21T04:30:54;1.60;99.90
7427;DHT22;3755;59.316;18.092;2023-11-21T04:33:21;1.70;99.90
7427;DHT22;3755;59.316;18.092;2023-11-21T04:35:48;1.70;99.90
7427;DHT22;3755;59.316;18.092;2023-11-21T04:38:15;1.80;99.90
7427;DHT22;3755;59.316;18.092;2023-11-21T04:40:43;1.70;99.90
7427;DHT22;3755;59.316;18.092;2023-11-21T04:43:11;1.80;99.90
7427;DHT22;3755;59.316;18.092;2023-11-21T04:45:38;1.80;99.90
7427;DHT22;3755;59.316;18.092;2023-11-21T04:48:07;1.70;99.90
7427;DHT22;3755;59.316;18.092;2023-11-21T04:50:34;1.80;99.90
7427;DHT22;3755;59.316;18.092;2023-11-21T04:53:01;1.80;99.90
7427;DHT22;3755;59.316;18.092;2023-11-21T04:55:28;1.80;99.90
7427;DHT22;3755;59.316;18.092;2023-11-21T04:57:55;1.70;99.90
7427;DHT22;3755;59.316;18.092;2023-11-21T05:00:24;1.70;99.90
7427;DHT22;3755;59.316;18.092;2023-11-21T05:02:52;1.80;99.90
7427;DHT22;3755;59.316;18.092;2023-11-21T05:05:19;1.70;99.90
7427;DHT22;3755;59.316;18.092;2023-11-21T05:07:46;1.70;99.90
7427;DHT22;3755;59.316;18.092;2023-11-21T05:10:14;1.70;99.90
7427;DHT22;3755;59.316;18.092;2023-11-21T05:12:42;1.70;99.90
7427;DHT22;3755;59.316;18.092;2023-11-21T05:15:09;1.80;99.90
7427;DHT22;3755;59.316;18.092;2023-11-21T05:17:39;1.40;99.90
7427;DHT22;3755;59.316;18.092;2023-11-21T05:20:08;1.80;99.90
7427;DHT22;3755;59.316;18.092;2023-11-21T05:22:36;1.80;99.90
7427;DHT22;3755;59.316;18.092;2023-11-21T05:25:05;1.70;99.90
7427;DHT22;3755;59.316;18.092;2023-11-21T05:27:33;1.70;99.90
7427;DHT22;3755;59.316;18.092;2023-11-21T05:30:01;1.80;99.90
7427;DHT22;3755;59.316;18.092;2023-11-21T05:32:30;1.90;99.90
7427;DHT22;3755;59.316;18.092;2023-11-21T05:34:59;1.80;99.90
7427;DHT22;3755;59.316;18.092;2023-11-21T05:37:26;1.80;99.90
7427;DHT22;3755;59.316;18.092;2023-11-21T05:39:53;1.80;99.90
7427;DHT22;3755;59.316;18.092;2023-11-21T05:42:22;1.80;99.90
7427;DHT22;3755;59.316;18.092;2023-11-21T05:44:49;1.90;99.90
7427;DHT22;3755;59.316;18.092;2023-11-21T05:47:16;1.80;99.90
7427;DHT22;3755;59.316;18.092;2023-11-21T05:49:43;1.80;99.90
7427;DHT22;3755;59.316;18.092;2023-11-21T05:52:12;1.80;99.90
7427;DHT22;3755;59.316;18.092;2023-11-21T05:54:41;1.80;99.90
7427;DHT22;3755;59.316;18.092;2023-11-21T05:57:08;1.90;99.90
7427;DHT22;3755;59.316;18.092;2023-11-21T05:59:35;1.90;99.90
7427;DHT22;3755;59.316;18.092;2023-11-21T06:02:03;1.90;99.90
7427;DHT22;3755;59.316;18.092;2023-11-21T06:04:30;1.90;99.90
7427;DHT22;3755;59.316;18.092;2023-11-21T06:06:57;1.80;99.90
7427;DHT22;3755;59.316;18.092;2023-11-21T06:09:27;1.90;99.90
7427;DHT22;3755;59.316;18.092;2023-11-21T06:11:54;1.90;99.90
7427;DHT22;3755;59.316;18.092;2023-11-21T06:14:21;1.90;99.90
7427;DHT22;3755;59.316;18.092;2023-11-21T06:16:49;1.90;99.90
7427;DHT22;3755;59.316;18.092;2023-11-21T06:19:17;1.90;99.90
7427;DHT22;3755;59.316;18.092;2023-11-21T06:21:45;1.90;99.90
7427;DHT22;3755;59.316;18.092;2023-11-21T06:24:13;1.90;99.90
7427;DHT22;3755;59.316;18.092;2023-11-21T06:26:43;2.00;99.90
7427;DHT22;3755;59.316;18.092;2023-11-21T06:29:10;2.00;99.90
7427;DHT22;3755;59.316;18.092;2023-11-21T06:31:38;1.90;99.90
7427;DHT22;3755;59.316;18.092;2023-11-21T06:34:06;1.90;99.90
7427;DHT22;3755;59.316;18.092;2023-11-21T06:36:35;1.90;99.90
7427;DHT22;3755;59.316;18.092;2023-11-21T06:39:02;1.90;99.90
7427;DHT22;3755;59.316;18.092;2023-11-21T06:41:32;1.90;99.90
7427;DHT22;3755;59.316;18.092;2023-11-21T06:44:06;1.90;99.90
7427;DHT22;3755;59.316;18.092;2023-11-21T06:46:34;1.90;99.90
7427;DHT22;3755;59.316;18.092;2023-11-21T06:49:03;1.90;99.90
7427;DHT22;3755;59.316;18.092;2023-11-21T06:51:32;1.90;99.90
7427;DHT22;3755;59.316;18.092;2023-11-21T06:54:13;1.90;99.90
7427;DHT22;3755;59.316;18.092;2023-11-21T06:56:53;1.90;99.90
7427;DHT22;3755;59.316;18.092;2023-11-21T06:59:37;1.90;99.90
7427;DHT22;3755;59.316;18.092;2023-11-21T07:02:20;1.90;99.90
7427;DHT22;3755;59.316;18.092;2023-11-21T07:04:49;1.80;99.90
7427;DHT22;3755;59.316;18.092;2023-11-21T07:07:30;1.80;99.90
7427;DHT22;3755;59.316;18.092;2023-11-21T07:09:58;1.80;99.90
7427;DHT22;3755;59.316;18.092;2023-11-21T07:12:29;1.80;99.90
7427;DHT22;3755;59.316;18.092;2023-11-21T07:14:58;1.80;99.90
7427;DHT22;3755;59.316;18.092;2023-11-21T07:17:29;1.80;99.90
7427;DHT22;3755;59.316;18.092;2023-11-21T07:19:58;1.90;99.90
7427;DHT22;3755;59.316;18.092;2023-11-21T07:22:27;1.90;99.90
7427;DHT22;3755;59.316;18.092;2023-11-21T07:24:55;1.80;99.90
7427;DHT22;3755;59.316;18.092;2023-11-21T07:27:26;1.80;99.90
7427;DHT22;3755;59.316;18.092;2023-11-21T07:29:55;1.80;99.90
7427;DHT22;3755;59.316;18.092;2023-11-21T07:35:48;1.90;99.90
7427;DHT22;3755;59.316;18.092;2023-11-21T07:38:29;1.90;99.90
7427;DHT22;3755;59.316;18.092;2023-11-21T07:41:10;1.90;99.90
7427;DHT22;3755;59.316;18.092;2023-11-21T07:43:52;1.90;99.90
7427;DHT22;3755;59.316;18.092;2023-11-21T07:46:46;1.90;99.90
7427;DHT22;3755;59.316;18.092;2023-11-21T07:49:41;1.90;99.90
7427;DHT22;3755;59.316;18.092;2023-11-21T07:52:24;2.00;99.90
7427;DHT22;3755;59.316;18.092;2023-11-21T07:55:02;2.00;99.90
7427;DHT22;3755;59.316;18.092;2023-11-21T07:57:31;2.00;99.90
7427;DHT22;3755;59.316;18.092;2023-11-21T08:00:19;2.10;99.90
7427;DHT22;3755;59.316;18.092;2023-11-21T08:03:01;2.10;99.90
7427;DHT22;3755;59.316;18.092;2023-11-21T08:05:28;2.10;99.90
7427;DHT22;3755;59.316;18.092;2023-11-21T08:07:58;2.20;99.90
7427;DHT22;3755;59.316;18.092;2023-11-21T08:10:30;2.10;99.90
7427;DHT22;3755;59.316;18.092;2023-11-21T08:13:15;2.10;99.90
7427;DHT22;3755;59.316;18.092;2023-11-21T08:16:28;2.10;99.90
7427;DHT22;3755;59.316;18.092;2023-11-21T08:19:09;2.10;99.90
7427;DHT22;3755;59.316;18.092;2023-11-21T08:21:52;2.00;99.90
7427;DHT22;3755;59.316;18.092;2023-11-21T08:24:29;2.00;99.90
7427;DHT22;3755;59.316;18.092;2023-11-21T08:26:57;2.00;99.90
7427;DHT22;3755;59.316;18.092;2023-11-21T08:29:41;2.00;99.90
7427;DHT22;3755;59.316;18.092;2023-11-21T08:32:17;1.90;99.90
7427;DHT22;3755;59.316;18.092;2023-11-21T08:34:58;2.00;99.90
7427;DHT22;3755;59.316;18.092;2023-11-21T08:37:27;1.90;99.90
7427;DHT22;3755;59.316;18.092;2023-11-21T08:40:02;1.90;99.90
7427;DHT22;3755;59.316;18.092;2023-11-21T08:42:43;1.90;99.90
7427;DHT22;3755;59.316;18.092;2023-11-21T08:45:11;1.80;99.90
7427;DHT22;3755;59.316;18.092;2023-11-21T08:47:39;1.80;99.90
7427;DHT22;3755;59.316;18.092;2023-11-21T08:50:07;1.90;99.90
7427;DHT22;3755;59.316;18.092;2023-11-21T08:52:34;1.80;99.90
7427;DHT22;3755;59.316;18.092;2023-11-21T08:55:04;1.80;99.90
7427;DHT22;3755;59.316;18.092;2023-11-21T08:57:33;1.80;99.90
7427;DHT22;3755;59.316;18.092;2023-11-21T09:00:01;1.90;99.90
7427;DHT22;3755;59.316;18.092;2023-11-21T09:02:31;1.90;99.90
7427;DHT22;3755;59.316;18.092;2023-11-21T09:05:00;1.80;99.90
7427;DHT22;3755;59.316;18.092;2023-11-21T09:07:30;1.80;99.90
7427;DHT22;3755;59.316;18.092;2023-11-21T09:13:15;1.70;99.90
7427;DHT22;3755;59.316;18.092;2023-11-21T09:16:00;1.50;99.90
7427;DHT22;3755;59.316;18.092;2023-11-21T09:18:42;1.70;99.90
7427;DHT22;3755;59.316;18.092;2023-11-21T09:21:14;1.70;99.90
7427;DHT22;3755;59.316;18.092;2023-11-21T09:23:43;1.70;99.90
7427;DHT22;3755;59.316;18.092;2023-11-21T09:26:13;1.70;99.90
7427;DHT22;3755;59.316;18.092;2023-11-21T09:28:43;1.70;99.90
7427;DHT22;3755;59.316;18.092;2023-11-21T09:31:12;1.80;99.90
7427;DHT22;3755;59.316;18.092;2023-11-21T09:33:42;1.70;99.90
7427;DHT22;3755;59.316;18.092;2023-11-21T09:36:11;1.80;99.90
7427;DHT22;3755;59.316;18.092;2023-11-21T09:38:40;1.80;99.90
7427;DHT22;3755;59.316;18.092;2023-11-21T09:41:23;1.90;99.90
7427;DHT22;3755;59.316;18.092;2023-11-21T09:44:09;1.90;99.90
7427;DHT22;3755;59.316;18.092;2023-11-21T09:46:41;1.90;99.90
7427;DHT22;3755;59.316;18.092;2023-11-21T09:49:09;2.00;99.90
7427;DHT22;3755;59.316;18.092;2023-11-21T09:51:39;2.10;99.90
7427;DHT22;3755;59.316;18.092;2023-11-21T09:54:10;2.10;99.90
7427;DHT22;3755;59.316;18.092;2023-11-21T09:56:39;2.20;99.90
7427;DHT22;3755;59.316;18.092;2023-11-21T09:59:06;2.10;99.90
7427;DHT22;3755;59.316;18.092;2023-11-21T10:01:36;2.10;99.90
7427;DHT22;3755;59.316;18.092;2023-11-21T10:04:07;2.30;99.90
7427;DHT22;3755;59.316;18.092;2023-11-21T10:06:39;2.20;99.90
7427;DHT22;3755;59.316;18.092;2023-11-21T10:09:28;2.20;99.90
7427;DHT22;3755;59.316;18.092;2023-11-21T10:11:58;2.30;99.90
7427;DHT22;3755;59.316;18.092;2023-11-21T10:14:41;2.20;99.90
7427;DHT22;3755;59.316;18.092;2023-11-21T10:17:10;2.20;99.90
7427;DHT22;3755;59.316;18.092;2023-11-21T10:19:39;2.20;99.90
7427;DHT22;3755;59.316;18.092;2023-11-21T10:22:09;2.20;99.90
7427;DHT22;3755;59.316;18.092;2023-11-21T10:24:36;2.20;99.90
7427;DHT22;3755;59.316;18.092;2023-11-21T10:27:07;2.10;99.90
7427;DHT22;3755;59.316;18.092;2023-11-21T10:29:51;2.10;99.90
7427;DHT22;3755;59.316;18.092;2023-11-21T10:32:18;2.00;99.90
7427;DHT22;3755;59.316;18.092;2023-11-21T10:34:55;2.10;99.90
7427;DHT22;3755;59.316;18.092;2023-11-21T10:37:23;2.10;99.90
7427;DHT22;3755;59.316;18.092;2023-11-21T10:39:57;2.00;99.90
7427;DHT22;3755;59.316;18.092;2023-11-21T10:42:26;1.90;99.90
7427;DHT22;3755;59.316;18.092;2023-11-21T10:44:54;1.90;99.90
7427;DHT22;3755;59.316;18.092;2023-11-21T10:47:21;2.00;99.90
7427;DHT22;3755;59.316;18.092;2023-11-21T10:49:49;2.00;99.90
7427;DHT22;3755;59.316;18.092;2023-11-21T10:52:20;2.00;99.90
7427;DHT22;3755;59.316;18.092;2023-11-21T10:54:47;2.00;99.90
7427;DHT22;3755;59.316;18.092;2023-11-21T10:57:18;2.10;99.90
7427;DHT22;3755;59.316;18.092;2023-11-21T10:59:47;2.10;99.90
7427;DHT22;3755;59.316;18.092;2023-11-21T11:02:22;2.10;99.90
7427;DHT22;3755;59.316;18.092;2023-11-21T11:04:52;2.20;99.90
7427;DHT22;3755;59.316;18.092;2023-11-21T11:07:23;2.10;99.90
7427;DHT22;3755;59.316;18.092;2023-11-21T11:09:53;2.20;99.90
7427;DHT22;3755;59.316;18.092;2023-11-21T11:12:20;2.20;99.90
7427;DHT22;3755;59.316;18.092;2023-11-21T11:14:55;2.20;99.90
7427;DHT22;3755;59.316;18.092;2023-11-21T11:17:37;2.30;99.90
7427;DHT22;3755;59.316;18.092;2023-11-21T11:20:07;2.30;99.90
7427;DHT22;3755;59.316;18.092;2023-11-21T11:22:40;2.20;99.90
7427;DHT22;3755;59.316;18.092;2023-11-21T11:25:25;2.20;99.90
7427;DHT22;3755;59.316;18.092;2023-11-21T11:28:03;2.20;99.90
7427;DHT22;3755;59.316;18.092;2023-11-21T11:30:45;2.30;99.90
7427;DHT22;3755;59.316;18.092;2023-11-21T11:33:25;2.50;99.90
7427;DHT22;3755;59.316;18.092;2023-11-21T11:36:02;2.30;99.90
7427;DHT22;3755;59.316;18.092;2023-11-21T11:38:32;2.30;99.90
7427;DHT22;3755;59.316;18.092;2023-11-21T11:41:02;2.20;99.90
7427;DHT22;3755;59.316;18.092;2023-11-21T11:43:31;2.20;99.90
7427;DHT22;3755;59.316;18.092;2023-11-21T11:46:03;2.30;99.90
7427;DHT22;3755;59.316;18.092;2023-11-21T11:48:30;2.10;99.90
7427;DHT22;3755;59.316;18.092;2023-11-21T11:51:03;2.10;99.90
7427;DHT22;3755;59.316;18.092;2023-11-21T11:53:35;2.10;99.90
7427;DHT22;3755;59.316;18.092;2023-11-21T11:56:21;2.00;99.90
7427;DHT22;3755;59.316;18.092;2023-11-21T11:58:54;1.90;99.90
7427;DHT22;3755;59.316;18.092;2023-11-21T12:01:27;2.00;99.90
7427;DHT22;3755;59.316;18.092;2023-11-21T12:04:27;2.00;99.90
7427;DHT22;3755;59.316;18.092;2023-11-21T12:07:01;1.90;99.90
7427;DHT22;3755;59.316;18.092;2023-11-21T12:09:30;1.90;99.90
7427;DHT22;3755;59.316;18.092;2023-11-21T12:11:58;1.90;99.90
7427;DHT22;3755;59.316;18.092;2023-11-21T12:14:28;1.90;99.90
7427;DHT22;3755;59.316;18.092;2023-11-21T12:16:59;1.90;99.90
7427;DHT22;3755;59.316;18.092;2023-11-21T12:19:40;2.00;99.90
7427;DHT22;3755;59.316;18.092;2023-11-21T12:22:20;2.00;99.90
7427;DHT22;3755;59.316;18.092;2023-11-21T12:24:49;1.90;99.90
7427;DHT22;3755;59.316;18.092;2023-11-21T12:27:18;1.90;99.90
7427;DHT22;3755;59.316;18.092;2023-11-21T12:29:48;1.80;99.90
7427;DHT22;3755;59.316;18.092;2023-11-21T12:32:17;1.80;99.90
7427;DHT22;3755;59.316;18.092;2023-11-21T12:34:44;1.80;99.90
7427;DHT22;3755;59.316;18.092;2023-11-21T12:37:12;1.80;99.90
7427;DHT22;3755;59.316;18.092;2023-11-21T12:39:40;1.80;99.90
7427;DHT22;3755;59.316;18.092;2023-11-21T12:42:07;1.70;99.90
7427;DHT22;3755;59.316;18.092;2023-11-21T12:44:34;1.70;99.90
7427;DHT22;3755;59.316;18.092;2023-11-21T12:47:03;1.60;99.90
7427;DHT22;3755;59.316;18.092;2023-11-21T12:49:32;1.60;99.90
7427;DHT22;3755;59.316;18.092;2023-11-21T12:52:00;1.60;99.90
7427;DHT22;3755;59.316;18.092;2023-11-21T12:54:29;1.60;99.90
7427;DHT22;3755;59.316;18.092;2023-11-21T12:56:59;1.60;99.90
7427;DHT22;3755;59.316;18.092;2023-11-21T12:59:27;1.60;99.90
7427;DHT22;3755;59.316;18.092;2023-11-21T13:01:56;1.60;99.90
7427;DHT22;3755;59.316;18.092;2023-11-21T13:04:32;1.50;99.90
7427;DHT22;3755;59.316;18.092;2023-11-21T13:07:03;1.40;99.90
7427;DHT22;3755;59.316;18.092;2023-11-21T13:09:40;1.30;99.90
7427;DHT22;3755;59.316;18.092;2023-11-21T13:12:08;1.30;99.90
7427;DHT22;3755;59.316;18.092;2023-11-21T13:14:36;1.30;99.90
7427;DHT22;3755;59.316;18.092;2023-11-21T13:17:03;1.20;99.90
7427;DHT22;3755;59.316;18.092;2023-11-21T13:19:32;1.20;99.90
7427;DHT22;3755;59.316;18.092;2023-11-21T13:21:59;1.20;99.90
7427;DHT22;3755;59.316;18.092;2023-11-21T13:24:29;1.20;99.90
7427;DHT22;3755;59.316;18.092;2023-11-21T13:26:58;1.20;99.90
7427;DHT22;3755;59.316;18.092;2023-11-21T13:29:25;1.20;99.90
7427;DHT22;3755;59.316;18.092;2023-11-21T13:31:52;1.20;99.90
7427;DHT22;3755;59.316;18.092;2023-11-21T13:34:21;1.20;99.90
7427;DHT22;3755;59.316;18.092;2023-11-21T13:36:52;1.10;99.90
7427;DHT22;3755;59.316;18.092;2023-11-21T13:39:24;1.10;99.90
7427;DHT22;3755;59.316;18.092;2023-11-21T13:41:54;1.10;99.90
7427;DHT22;3755;59.316;18.092;2023-11-21T13:44:22;1.10;99.90
7427;DHT22;3755;59.316;18.092;2023-11-21T13:47:00;1.00;99.90
7427;DHT22;3755;59.316;18.092;2023-11-21T13:49:29;1.00;99.90
7427;DHT22;3755;59.316;18.092;2023-11-21T13:52:11;0.70;99.90
7427;DHT22;3755;59.316;18.092;2023-11-21T13:54:56;0.90;99.90
7427;DHT22;3755;59.316;18.092;2023-11-21T13:57:26;0.90;99.90
7427;DHT22;3755;59.316;18.092;2023-11-21T13:59:56;0.80;99.90
7427;DHT22;3755;59.316;18.092;2023-11-21T14:02:24;0.80;99.90
7427;DHT22;3755;59.316;18.092;2023-11-21T14:04:59;0.80;99.90
7427;DHT22;3755;59.316;18.092;2023-11-21T14:07:37;0.80;99.90
7427;DHT22;3755;59.316;18.092;2023-11-21T14:10:15;0.70;99.90
7427;DHT22;3755;59.316;18.092;2023-11-21T14:12:52;0.70;99.90
7427;DHT22;3755;59.316;18.092;2023-11-21T14:15:20;0.70;99.90
7427;DHT22;3755;59.316;18.092;2023-11-21T14:17:47;0.60;99.90
7427;DHT22;3755;59.316;18.092;2023-11-21T14:20:15;0.60;99.90
7427;DHT22;3755;59.316;18.092;2023-11-21T14:22:53;0.60;99.90
7427;DHT22;3755;59.316;18.092;2023-11-21T14:25:34;0.40;99.90
7427;DHT22;3755;59.316;18.092;2023-11-21T14:28:03;0.50;99.90
7427;DHT22;3755;59.316;18.092;2023-11-21T14:30:32;0.50;99.90
7427;DHT22;3755;59.316;18.092;2023-11-21T14:33:08;0.70;99.90
7427;DHT22;3755;59.316;18.092;2023-11-21T14:35:37;0.40;99.90
7427;DHT22;3755;59.316;18.092;2023-11-21T14:38:05;0.80;99.90
7427;DHT22;3755;59.316;18.092;2023-11-21T14:40:32;0.40;99.90
7427;DHT22;3755;59.316;18.092;2023-11-21T14:43:03;0.40;99.90
7427;DHT22;3755;59.316;18.092;2023-11-21T14:45:32;0.40;99.90
7427;DHT22;3755;59.316;18.092;2023-11-21T14:48:03;0.40;99.90
7427;DHT22;3755;59.316;18.092;2023-11-21T14:50:43;0.40;99.90
7427;DHT22;3755;59.316;18.092;2023-11-21T15:12:54;0.20;99.90
7427;DHT22;3755;59.316;18.092;2023-11-21T15:15:23;-0.10;99.90
7427;DHT22;3755;59.316;18.092;2023-11-21T15:17:49;0.20;99.90
7427;DHT22;3755;59.316;18.092;2023-11-21T15:20:17;0.20;99.90
7427;DHT22;3755;59.316;18.092;2023-11-21T15:22:46;0.20;99.90
7427;DHT22;3755;59.316;18.092;2023-11-21T15:25:15;0.20;99.90
7427;DHT22;3755;59.316;18.092;2023-11-21T15:27:43;0.20;99.90
7427;DHT22;3755;59.316;18.092;2023-11-21T15:30:13;0.20;99.90
7427;DHT22;3755;59.316;18.092;2023-11-21T15:32:42;0.10;99.90
7427;DHT22;3755;59.316;18.092;2023-11-21T15:35:11;0.10;99.90
7427;DHT22;3755;59.316;18.092;2023-11-21T15:37:43;0.10;99.90
7427;DHT22;3755;59.316;18.092;2023-11-21T15:40:11;0.20;99.90
7427;DHT22;3755;59.316;18.092;2023-11-21T15:42:43;0.20;99.90
7427;DHT22;3755;59.316;18.092;2023-11-21T15:45:11;0.20;99.90
7427;DHT22;3755;59.316;18.092;2023-11-21T15:47:39;0.30;99.90
7427;DHT22;3755;59.316;18.092;2023-11-21T15:50:07;0.30;99.90
7427;DHT22;3755;59.316;18.092;2023-11-21T15:52:36;0.40;99.90
7427;DHT22;3755;59.316;18.092;2023-11-21T15:55:04;0.40;99.90
7427;DHT22;3755;59.316;18.092;2023-11-21T15:57:32;0.40;99.90
7427;DHT22;3755;59.316;18.092;2023-11-21T16:00:01;0.50;99.90
7427;DHT22;3755;59.316;18.092;2023-11-21T16:02:34;0.50;99.90
7427;DHT22;3755;59.316;18.092;2023-11-21T16:05:04;0.50;99.90
7427;DHT22;3755;59.316;18.092;2023-11-21T16:07:32;0.50;99.90
7427;DHT22;3755;59.316;18.092;2023-11-21T16:10:05;0.50;99.90
7427;DHT22;3755;59.316;18.092;2023-11-21T16:12:36;0.50;99.90
7427;DHT22;3755;59.316;18.092;2023-11-21T16:15:07;0.50;99.90
7427;DHT22;3755;59.316;18.092;2023-11-21T16:17:35;0.50;99.90
7427;DHT22;3755;59.316;18.092;2023-11-21T16:20:02;0.40;99.90
7427;DHT22;3755;59.316;18.092;2023-11-21T16:22:36;0.40;99.90
7427;DHT22;3755;59.316;18.092;2023-11-21T16:25:05;0.30;99.90
7427;DHT22;3755;59.316;18.092;2023-11-21T16:27:36;0.30;99.90
7427;DHT22;3755;59.316;18.092;2023-11-21T16:30:13;0.30;99.90
7427;DHT22;3755;59.316;18.092;2023-11-21T16:32:53;0.30;99.90
7427;DHT22;3755;59.316;18.092;2023-11-21T16:35:21;0.20;99.90
7427;DHT22;3755;59.316;18.092;2023-11-21T16:37:52;0.20;99.90
7427;DHT22;3755;59.316;18.092;2023-11-21T16:40:21;0.20;99.90
7427;DHT22;3755;59.316;18.092;2023-11-21T16:42:49;0.20;99.90
7427;DHT22;3755;59.316;18.092;2023-11-21T16:45:34;0.20;99.90
7427;DHT22;3755;59.316;18.092;2023-11-21T16:48:01;0.30;99.90
7427;DHT22;3755;59.316;18.092;2023-11-21T16:50:30;0.30;99.90